sensor_id;sensor_type;location;lat;lon;timestamp;P1;durP1;ratioP1;P2;durP2;ratioP2
46723;SDS011;32463;48.298;11.620;2022-10-17T00:01:15;14.38;;;8.10;;
46723;SDS011;32463;48.298;11.620;2022-10-17T00:03:42;15.27;;;6.93;;
46723;SDS011;32463;48.298;11.620;2022-10-17T00:06:10;13.50;;;6.18;;
46723;SDS011;32463;48.298;11.620;2022-10-17T00:08:38;12.98;;;6.78;;
46723;SDS011;32463;48.298;11.620;2022-10-17T00:11:10;10.18;;;5.97;;
46723;SDS011;32463;48.298;11.620;2022-10-17T00:13:39;11.45;;;6.72;;
46723;SDS011;32463;48.298;11.620;2022-10-17T00:16:06;12.05;;;7.00;;
46723;SDS011;32463;48.298;11.620;2022-10-17T00:18:33;11.65;;;7.75;;
46723;SDS011;32463;48.298;11.620;2022-10-17T00:20:59;14.60;;;8.45;;
46723;SDS011;32463;48.298;11.620;2022-10-17T00:23:26;10.60;;;7.75;;
46723;SDS011;32463;48.298;11.620;2022-10-17T00:25:57;10.65;;;7.65;;
46723;SDS011;32463;48.298;11.620;2022-10-17T00:28:29;16.67;;;9.77;;
46723;SDS011;32463;48.298;11.620;2022-10-17T00:30:56;14.73;;;10.55;;
46723;SDS011;32463;48.298;11.620;2022-10-17T00:33:27;16.50;;;11.40;;
46723;SDS011;32463;48.298;11.620;2022-10-17T00:36:05;15.73;;;9.95;;
46723;SDS011;32463;48.298;11.620;2022-10-17T00:38:38;19.25;;;10.48;;
46723;SDS011;32463;48.298;11.620;2022-10-17T00:41:06;17.77;;;9.23;;
46723;SDS011;32463;48.298;11.620;2022-10-17T00:46:37;11.18;;;7.53;;
46723;SDS011;32463;48.298;11.620;2022-10-17T00:49:06;9.65;;;7.13;;
46723;SDS011;32463;48.298;11.620;2022-10-17T00:51:54;8.70;;;5.55;;
46723;SDS011;32463;48.298;11.620;2022-10-17T00:54:28;9.13;;;5.85;;
46723;SDS011;32463;48.298;11.620;2022-10-17T00:56:59;8.75;;;5.07;;
46723;SDS011;32463;48.298;11.620;2022-10-17T00:59:26;9.52;;;5.00;;
46723;SDS011;32463;48.298;11.620;2022-10-17T01:02:01;13.07;;;7.18;;
46723;SDS011;32463;48.298;11.620;2022-10-17T01:04:30;12.65;;;6.07;;
46723;SDS011;32463;48.298;11.620;2022-10-17T01:06:57;12.20;;;6.22;;
46723;SDS011;32463;48.298;11.620;2022-10-17T01:09:23;11.93;;;5.78;;
46723;SDS011;32463;48.298;11.620;2022-10-17T01:11:55;11.00;;;5.00;;
46723;SDS011;32463;48.298;11.620;2022-10-17T01:22:48;5.43;;;4.00;;
46723;SDS011;32463;48.298;11.620;2022-10-17T01:39:44;8.15;;;5.30;;
46723;SDS011;32463;48.298;11.620;2022-10-17T01:42:17;7.10;;;4.53;;
46723;SDS011;32463;48.298;11.620;2022-10-17T01:44:53;7.28;;;5.13;;
46723;SDS011;32463;48.298;11.620;2022-10-17T01:47:25;6.90;;;5.20;;
46723;SDS011;32463;48.298;11.620;2022-10-17T01:49:56;6.82;;;4.53;;
46723;SDS011;32463;48.298;11.620;2022-10-17T01:52:28;8.13;;;5.27;;
46723;SDS011;32463;48.298;11.620;2022-10-17T01:55:03;8.25;;;5.82;;
46723;SDS011;32463;48.298;11.620;2022-10-17T01:57:42;9.23;;;5.10;;
46723;SDS011;32463;48.298;11.620;2022-10-17T02:00:16;7.35;;;5.07;;
46723;SDS011;32463;48.298;11.620;2022-10-17T02:02:46;7.68;;;4.60;;
46723;SDS011;32463;48.298;11.620;2022-10-17T02:05:17;6.68;;;4.55;;
46723;SDS011;32463;48.298;11.620;2022-10-17T02:07:46;9.00;;;5.43;;
46723;SDS011;32463;48.298;11.620;2022-10-17T02:10:15;7.15;;;5.72;;
46723;SDS011;32463;48.298;11.620;2022-10-17T02:12:55;5.88;;;4.57;;
46723;SDS011;32463;48.298;11.620;2022-10-17T02:15:33;8.10;;;4.50;;
46723;SDS011;32463;48.298;11.620;2022-10-17T02:26:10;7.32;;;4.68;;
46723;SDS011;32463;48.298;11.620;2022-10-17T02:28:46;8.40;;;4.95;;
46723;SDS011;32463;48.298;11.620;2022-10-17T02:31:21;8.63;;;5.00;;
46723;SDS011;32463;48.298;11.620;2022-10-17T02:33:57;8.98;;;5.53;;
46723;SDS011;32463;48.298;11.620;2022-10-17T02:36:28;8.10;;;5.32;;
46723;SDS011;32463;48.298;11.620;2022-10-17T02:39:00;8.75;;;4.93;;
46723;SDS011;32463;48.298;11.620;2022-10-17T02:41:29;9.55;;;5.40;;
46723;SDS011;32463;48.298;11.620;2022-10-17T02:43:56;8.52;;;5.22;;
46723;SDS011;32463;48.298;11.620;2022-10-17T02:46:24;8.38;;;5.13;;
46723;SDS011;32463;48.298;11.620;2022-10-17T02:48:54;7.57;;;5.38;;
46723;SDS011;32463;48.298;11.620;2022-10-17T02:56:48;8.50;;;5.07;;
46723;SDS011;32463;48.298;11.620;2022-10-17T02:59:19;11.20;;;5.65;;
46723;SDS011;32463;48.298;11.620;2022-10-17T03:01:49;7.50;;;4.97;;
46723;SDS011;32463;48.298;11.620;2022-10-17T03:04:16;8.77;;;5.35;;
46723;SDS011;32463;48.298;11.620;2022-10-17T03:06:43;8.57;;;5.25;;
46723;SDS011;32463;48.298;11.620;2022-10-17T03:09:11;5.93;;;4.03;;
46723;SDS011;32463;48.298;11.620;2022-10-17T03:11:37;10.85;;;4.82;;
46723;SDS011;32463;48.298;11.620;2022-10-17T03:14:04;7.85;;;5.07;;
46723;SDS011;32463;48.298;11.620;2022-10-17T03:16:31;5.93;;;4.15;;
46723;SDS011;32463;48.298;11.620;2022-10-17T03:18:57;5.88;;;4.30;;
46723;SDS011;32463;48.298;11.620;2022-10-17T03:21:23;9.43;;;4.88;;
46723;SDS011;32463;48.298;11.620;2022-10-17T03:23:50;9.98;;;5.65;;
46723;SDS011;32463;48.298;11.620;2022-10-17T03:26:16;7.28;;;5.13;;
46723;SDS011;32463;48.298;11.620;2022-10-17T03:28:43;8.60;;;5.32;;
46723;SDS011;32463;48.298;11.620;2022-10-17T03:31:10;7.85;;;4.95;;
46723;SDS011;32463;48.298;11.620;2022-10-17T03:33:39;8.88;;;5.72;;
46723;SDS011;32463;48.298;11.620;2022-10-17T03:36:06;10.73;;;5.85;;
46723;SDS011;32463;48.298;11.620;2022-10-17T03:38:34;6.38;;;4.40;;
46723;SDS011;32463;48.298;11.620;2022-10-17T03:41:01;12.68;;;5.00;;
46723;SDS011;32463;48.298;11.620;2022-10-17T03:43:28;10.35;;;6.18;;
46723;SDS011;32463;48.298;11.620;2022-10-17T03:45:56;9.82;;;5.65;;
46723;SDS011;32463;48.298;11.620;2022-10-17T03:48:23;8.27;;;5.55;;
46723;SDS011;32463;48.298;11.620;2022-10-17T03:50:52;11.23;;;5.63;;
46723;SDS011;32463;48.298;11.620;2022-10-17T03:53:24;9.80;;;5.63;;
46723;SDS011;32463;48.298;11.620;2022-10-17T03:55:50;9.13;;;5.55;;
46723;SDS011;32463;48.298;11.620;2022-10-17T03:58:17;8.05;;;4.80;;
46723;SDS011;32463;48.298;11.620;2022-10-17T04:00:43;7.82;;;4.70;;
46723;SDS011;32463;48.298;11.620;2022-10-17T04:03:09;7.32;;;4.65;;
46723;SDS011;32463;48.298;11.620;2022-10-17T04:05:36;6.22;;;4.00;;
46723;SDS011;32463;48.298;11.620;2022-10-17T04:08:02;9.15;;;5.03;;
46723;SDS011;32463;48.298;11.620;2022-10-17T04:10:29;14.13;;;5.80;;
46723;SDS011;32463;48.298;11.620;2022-10-17T04:12:55;8.68;;;5.60;;
46723;SDS011;32463;48.298;11.620;2022-10-17T04:15:22;10.50;;;5.28;;
46723;SDS011;32463;48.298;11.620;2022-10-17T04:17:48;8.25;;;5.40;;
46723;SDS011;32463;48.298;11.620;2022-10-17T04:20:15;9.35;;;5.40;;
46723;SDS011;32463;48.298;11.620;2022-10-17T04:22:41;9.57;;;5.95;;
46723;SDS011;32463;48.298;11.620;2022-10-17T04:25:07;8.68;;;5.82;;
46723;SDS011;32463;48.298;11.620;2022-10-17T04:27:34;8.48;;;4.18;;
46723;SDS011;32463;48.298;11.620;2022-10-17T04:30:00;6.20;;;4.18;;
46723;SDS011;32463;48.298;11.620;2022-10-17T04:32:27;7.40;;;5.20;;
46723;SDS011;32463;48.298;11.620;2022-10-17T04:34:53;8.65;;;4.82;;
46723;SDS011;32463;48.298;11.620;2022-10-17T04:37:20;9.85;;;5.72;;
46723;SDS011;32463;48.298;11.620;2022-10-17T04:39:46;11.60;;;5.78;;
46723;SDS011;32463;48.298;11.620;2022-10-17T04:42:13;11.05;;;5.25;;
46723;SDS011;32463;48.298;11.620;2022-10-17T04:44:39;10.07;;;6.15;;
46723;SDS011;32463;48.298;11.620;2022-10-17T04:47:06;12.18;;;5.65;;
46723;SDS011;32463;48.298;11.620;2022-10-17T04:49:33;8.02;;;5.30;;
46723;SDS011;32463;48.298;11.620;2022-10-17T04:51:59;10.27;;;5.05;;
46723;SDS011;32463;48.298;11.620;2022-10-17T04:54:26;8.70;;;5.20;;
46723;SDS011;32463;48.298;11.620;2022-10-17T04:56:52;9.15;;;5.18;;
46723;SDS011;32463;48.298;11.620;2022-10-17T04:59:19;9.10;;;6.05;;
46723;SDS011;32463;48.298;11.620;2022-10-17T05:01:47;9.95;;;6.13;;
46723;SDS011;32463;48.298;11.620;2022-10-17T05:04:14;9.02;;;5.68;;
46723;SDS011;32463;48.298;11.620;2022-10-17T05:06:40;9.05;;;5.57;;
46723;SDS011;32463;48.298;11.620;2022-10-17T05:09:07;13.68;;;7.43;;
46723;SDS011;32463;48.298;11.620;2022-10-17T05:11:33;14.18;;;7.53;;
46723;SDS011;32463;48.298;11.620;2022-10-17T05:14:00;14.77;;;6.85;;
46723;SDS011;32463;48.298;11.620;2022-10-17T05:16:28;12.68;;;7.55;;
46723;SDS011;32463;48.298;11.620;2022-10-17T05:18:55;11.00;;;6.88;;
46723;SDS011;32463;48.298;11.620;2022-10-17T05:21:24;12.63;;;6.70;;
46723;SDS011;32463;48.298;11.620;2022-10-17T05:23:51;16.17;;;8.63;;
46723;SDS011;32463;48.298;11.620;2022-10-17T05:26:19;10.73;;;6.80;;
46723;SDS011;32463;48.298;11.620;2022-10-17T05:28:46;11.18;;;6.10;;
46723;SDS011;32463;48.298;11.620;2022-10-17T05:31:12;13.00;;;6.75;;
46723;SDS011;32463;48.298;11.620;2022-10-17T05:33:39;13.90;;;6.63;;
46723;SDS011;32463;48.298;11.620;2022-10-17T05:36:06;13.38;;;8.15;;
46723;SDS011;32463;48.298;11.620;2022-10-17T05:38:33;17.48;;;8.60;;
46723;SDS011;32463;48.298;11.620;2022-10-17T05:41:00;16.80;;;8.82;;
46723;SDS011;32463;48.298;11.620;2022-10-17T05:43:29;14.20;;;8.32;;
46723;SDS011;32463;48.298;11.620;2022-10-17T05:45:56;14.75;;;9.27;;
46723;SDS011;32463;48.298;11.620;2022-10-17T05:48:22;11.85;;;7.13;;
46723;SDS011;32463;48.298;11.620;2022-10-17T05:50:49;14.45;;;8.20;;
46723;SDS011;32463;48.298;11.620;2022-10-17T05:53:23;14.07;;;7.07;;
46723;SDS011;32463;48.298;11.620;2022-10-17T05:55:59;11.63;;;7.00;;
46723;SDS011;32463;48.298;11.620;2022-10-17T05:58:28;9.60;;;5.85;;
46723;SDS011;32463;48.298;11.620;2022-10-17T06:00:59;8.93;;;5.35;;
46723;SDS011;32463;48.298;11.620;2022-10-17T06:03:27;12.88;;;7.30;;
46723;SDS011;32463;48.298;11.620;2022-10-17T06:05:54;14.70;;;8.30;;
46723;SDS011;32463;48.298;11.620;2022-10-17T06:08:21;14.30;;;8.93;;
46723;SDS011;32463;48.298;11.620;2022-10-17T06:10:50;17.13;;;8.98;;
46723;SDS011;32463;48.298;11.620;2022-10-17T06:13:17;14.40;;;8.45;;
46723;SDS011;32463;48.298;11.620;2022-10-17T06:15:44;13.55;;;7.65;;
46723;SDS011;32463;48.298;11.620;2022-10-17T06:18:10;10.23;;;6.93;;
46723;SDS011;32463;48.298;11.620;2022-10-17T06:20:37;14.05;;;8.20;;
46723;SDS011;32463;48.298;11.620;2022-10-17T06:23:03;17.00;;;8.40;;
46723;SDS011;32463;48.298;11.620;2022-10-17T06:25:30;12.65;;;8.10;;
46723;SDS011;32463;48.298;11.620;2022-10-17T06:27:57;15.68;;;7.15;;
46723;SDS011;32463;48.298;11.620;2022-10-17T06:30:23;13.55;;;8.45;;
46723;SDS011;32463;48.298;11.620;2022-10-17T06:32:50;10.90;;;7.05;;
46723;SDS011;32463;48.298;11.620;2022-10-17T06:35:17;13.60;;;7.82;;
46723;SDS011;32463;48.298;11.620;2022-10-17T06:37:44;14.45;;;8.55;;
46723;SDS011;32463;48.298;11.620;2022-10-17T06:40:11;12.68;;;7.70;;
46723;SDS011;32463;48.298;11.620;2022-10-17T06:42:40;11.43;;;7.55;;
46723;SDS011;32463;48.298;11.620;2022-10-17T06:45:07;10.38;;;6.90;;
46723;SDS011;32463;48.298;11.620;2022-10-17T06:47:34;8.98;;;6.53;;
46723;SDS011;32463;48.298;11.620;2022-10-17T06:50:01;13.65;;;5.80;;
46723;SDS011;32463;48.298;11.620;2022-10-17T06:52:28;10.00;;;5.25;;
46723;SDS011;32463;48.298;11.620;2022-10-17T06:54:54;8.77;;;5.40;;
46723;SDS011;32463;48.298;11.620;2022-10-17T06:57:21;8.48;;;4.65;;
46723;SDS011;32463;48.298;11.620;2022-10-17T06:59:47;12.18;;;4.82;;
46723;SDS011;32463;48.298;11.620;2022-10-17T07:02:14;6.15;;;3.88;;
46723;SDS011;32463;48.298;11.620;2022-10-17T07:04:40;10.80;;;4.25;;
46723;SDS011;32463;48.298;11.620;2022-10-17T07:07:07;12.93;;;4.78;;
46723;SDS011;32463;48.298;11.620;2022-10-17T07:09:33;8.07;;;4.57;;
46723;SDS011;32463;48.298;11.620;2022-10-17T07:12:00;7.78;;;4.47;;
46723;SDS011;32463;48.298;11.620;2022-10-17T07:14:26;6.15;;;3.95;;
46723;SDS011;32463;48.298;11.620;2022-10-17T07:16:59;10.30;;;4.53;;
46723;SDS011;32463;48.298;11.620;2022-10-17T07:19:26;7.88;;;4.30;;
46723;SDS011;32463;48.298;11.620;2022-10-17T07:21:52;7.13;;;3.75;;
46723;SDS011;32463;48.298;11.620;2022-10-17T07:24:19;5.70;;;4.05;;
46723;SDS011;32463;48.298;11.620;2022-10-17T07:26:46;8.80;;;4.22;;
46723;SDS011;32463;48.298;11.620;2022-10-17T07:29:12;11.82;;;4.00;;
46723;SDS011;32463;48.298;11.620;2022-10-17T07:31:38;11.25;;;3.78;;
46723;SDS011;32463;48.298;11.620;2022-10-17T07:34:05;6.30;;;4.03;;
46723;SDS011;32463;48.298;11.620;2022-10-17T07:36:31;6.93;;;4.00;;
46723;SDS011;32463;48.298;11.620;2022-10-17T07:38:58;9.90;;;3.88;;
46723;SDS011;32463;48.298;11.620;2022-10-17T07:41:24;9.98;;;4.60;;
46723;SDS011;32463;48.298;11.620;2022-10-17T07:43:51;13.07;;;4.20;;
46723;SDS011;32463;48.298;11.620;2022-10-17T07:46:18;8.52;;;3.58;;
46723;SDS011;32463;48.298;11.620;2022-10-17T07:48:44;6.72;;;3.53;;
46723;SDS011;32463;48.298;11.620;2022-10-17T07:51:11;12.93;;;3.95;;
46723;SDS011;32463;48.298;11.620;2022-10-17T07:53:37;8.30;;;3.75;;
46723;SDS011;32463;48.298;11.620;2022-10-17T07:56:05;8.98;;;3.60;;
46723;SDS011;32463;48.298;11.620;2022-10-17T07:58:33;6.95;;;3.25;;
46723;SDS011;32463;48.298;11.620;2022-10-17T08:01:05;9.55;;;3.60;;
46723;SDS011;32463;48.298;11.620;2022-10-17T08:03:34;10.77;;;3.63;;
46723;SDS011;32463;48.298;11.620;2022-10-17T08:06:02;7.30;;;3.33;;
46723;SDS011;32463;48.298;11.620;2022-10-17T08:08:29;6.13;;;3.40;;
46723;SDS011;32463;48.298;11.620;2022-10-17T08:10:59;4.68;;;2.95;;
46723;SDS011;32463;48.298;11.620;2022-10-17T08:13:28;9.57;;;3.40;;
46723;SDS011;32463;48.298;11.620;2022-10-17T08:15:57;5.32;;;3.63;;
46723;SDS011;32463;48.298;11.620;2022-10-17T08:20:54;10.32;;;3.45;;
46723;SDS011;32463;48.298;11.620;2022-10-17T08:23:20;11.07;;;3.88;;
46723;SDS011;32463;48.298;11.620;2022-10-17T08:25:47;8.35;;;4.10;;
46723;SDS011;32463;48.298;11.620;2022-10-17T08:28:13;9.95;;;3.55;;
46723;SDS011;32463;48.298;11.620;2022-10-17T08:30:40;8.43;;;3.45;;
46723;SDS011;32463;48.298;11.620;2022-10-17T08:33:06;12.38;;;3.50;;
46723;SDS011;32463;48.298;11.620;2022-10-17T08:35:32;6.70;;;2.80;;
46723;SDS011;32463;48.298;11.620;2022-10-17T08:37:59;9.55;;;3.03;;
46723;SDS011;32463;48.298;11.620;2022-10-17T08:40:28;6.50;;;3.10;;
46723;SDS011;32463;48.298;11.620;2022-10-17T08:48:39;7.85;;;3.20;;
46723;SDS011;32463;48.298;11.620;2022-10-17T08:53:54;7.13;;;2.88;;
46723;SDS011;32463;48.298;11.620;2022-10-17T08:56:29;10.82;;;3.35;;
46723;SDS011;32463;48.298;11.620;2022-10-17T08:59:00;7.43;;;3.20;;
46723;SDS011;32463;48.298;11.620;2022-10-17T09:09:36;6.05;;;3.30;;
46723;SDS011;32463;48.298;11.620;2022-10-17T09:12:25;9.73;;;3.17;;
46723;SDS011;32463;48.298;11.620;2022-10-17T09:17:49;7.97;;;3.00;;
46723;SDS011;32463;48.298;11.620;2022-10-17T09:20:18;7.40;;;2.90;;
46723;SDS011;32463;48.298;11.620;2022-10-17T09:23:09;5.70;;;3.22;;
46723;SDS011;32463;48.298;11.620;2022-10-17T09:25:44;8.13;;;3.42;;
46723;SDS011;32463;48.298;11.620;2022-10-17T09:30:52;8.77;;;3.78;;
46723;SDS011;32463;48.298;11.620;2022-10-17T09:33:27;9.50;;;4.05;;
46723;SDS011;32463;48.298;11.620;2022-10-17T09:35:57;5.90;;;3.35;;
46723;SDS011;32463;48.298;11.620;2022-10-17T09:38:27;4.53;;;2.83;;
46723;SDS011;32463;48.298;11.620;2022-10-17T09:41:01;6.22;;;3.10;;
46723;SDS011;32463;48.298;11.620;2022-10-17T09:43:28;3.85;;;2.35;;
46723;SDS011;32463;48.298;11.620;2022-10-17T09:48:37;5.75;;;2.70;;
46723;SDS011;32463;48.298;11.620;2022-10-17T09:51:07;8.35;;;2.65;;
46723;SDS011;32463;48.298;11.620;2022-10-17T09:53:56;4.00;;;2.67;;
46723;SDS011;32463;48.298;11.620;2022-10-17T09:56:24;4.05;;;2.80;;
46723;SDS011;32463;48.298;11.620;2022-10-17T09:58:52;7.28;;;2.83;;
46723;SDS011;32463;48.298;11.620;2022-10-17T10:01:27;7.10;;;2.90;;
46723;SDS011;32463;48.298;11.620;2022-10-17T10:06:40;4.97;;;2.97;;
46723;SDS011;32463;48.298;11.620;2022-10-17T10:09:27;4.32;;;2.70;;
46723;SDS011;32463;48.298;11.620;2022-10-17T10:11:57;4.78;;;2.33;;
46723;SDS011;32463;48.298;11.620;2022-10-17T10:14:41;6.07;;;3.53;;
46723;SDS011;32463;48.298;11.620;2022-10-17T10:17:32;5.47;;;2.53;;
46723;SDS011;32463;48.298;11.620;2022-10-17T10:20:28;6.93;;;2.53;;
46723;SDS011;32463;48.298;11.620;2022-10-17T10:23:04;8.43;;;2.55;;
46723;SDS011;32463;48.298;11.620;2022-10-17T10:25:31;7.07;;;2.67;;
46723;SDS011;32463;48.298;11.620;2022-10-17T10:27:58;4.30;;;2.30;;
46723;SDS011;32463;48.298;11.620;2022-10-17T10:30:27;4.75;;;2.25;;
46723;SDS011;32463;48.298;11.620;2022-10-17T10:32:55;9.45;;;2.85;;
46723;SDS011;32463;48.298;11.620;2022-10-17T10:35:33;4.43;;;2.22;;
46723;SDS011;32463;48.298;11.620;2022-10-17T10:38:02;6.38;;;2.47;;
46723;SDS011;32463;48.298;11.620;2022-10-17T10:40:35;3.83;;;2.15;;
46723;SDS011;32463;48.298;11.620;2022-10-17T10:43:15;23.55;;;17.70;;
46723;SDS011;32463;48.298;11.620;2022-10-17T10:45:50;10.85;;;7.00;;
46723;SDS011;32463;48.298;11.620;2022-10-17T10:48:19;6.55;;;2.60;;
46723;SDS011;32463;48.298;11.620;2022-10-17T10:50:48;4.07;;;2.35;;
46723;SDS011;32463;48.298;11.620;2022-10-17T11:01:11;3.67;;;1.80;;
46723;SDS011;32463;48.298;11.620;2022-10-17T11:04:03;5.05;;;2.13;;
46723;SDS011;32463;48.298;11.620;2022-10-17T11:06:38;5.20;;;2.25;;
46723;SDS011;32463;48.298;11.620;2022-10-17T11:11:54;6.25;;;2.10;;
46723;SDS011;32463;48.298;11.620;2022-10-17T11:14:31;9.60;;;2.10;;
46723;SDS011;32463;48.298;11.620;2022-10-17T11:17:20;5.07;;;2.10;;
46723;SDS011;32463;48.298;11.620;2022-10-17T11:22:52;5.00;;;1.90;;
46723;SDS011;32463;48.298;11.620;2022-10-17T11:25:30;5.18;;;1.90;;
46723;SDS011;32463;48.298;11.620;2022-10-17T11:27:57;10.13;;;5.75;;
46723;SDS011;32463;48.298;11.620;2022-10-17T11:30:25;5.07;;;1.92;;
46723;SDS011;32463;48.298;11.620;2022-10-17T11:32:56;5.53;;;2.60;;
46723;SDS011;32463;48.298;11.620;2022-10-17T11:38:21;3.45;;;2.00;;
46723;SDS011;32463;48.298;11.620;2022-10-17T11:41:08;3.22;;;2.10;;
46723;SDS011;32463;48.298;11.620;2022-10-17T11:43:44;4.80;;;1.88;;
46723;SDS011;32463;48.298;11.620;2022-10-17T11:46:18;4.82;;;1.70;;
46723;SDS011;32463;48.298;11.620;2022-10-17T12:08:40;2.92;;;1.70;;
46723;SDS011;32463;48.298;11.620;2022-10-17T12:13:49;2.03;;;1.55;;
46723;SDS011;32463;48.298;11.620;2022-10-17T12:18:45;4.07;;;1.55;;
46723;SDS011;32463;48.298;11.620;2022-10-17T12:21:12;4.85;;;1.77;;
46723;SDS011;32463;48.298;11.620;2022-10-17T12:23:39;3.30;;;1.70;;
46723;SDS011;32463;48.298;11.620;2022-10-17T12:26:23;2.83;;;1.60;;
46723;SDS011;32463;48.298;11.620;2022-10-17T12:28:51;5.50;;;1.73;;
46723;SDS011;32463;48.298;11.620;2022-10-17T12:33:52;3.00;;;1.70;;
46723;SDS011;32463;48.298;11.620;2022-10-17T12:46:40;13.52;;;5.70;;
46723;SDS011;32463;48.298;11.620;2022-10-17T12:49:38;3.47;;;1.88;;
46723;SDS011;32463;48.298;11.620;2022-10-17T12:55:14;2.67;;;1.40;;
46723;SDS011;32463;48.298;11.620;2022-10-17T12:58:04;3.05;;;1.55;;
46723;SDS011;32463;48.298;11.620;2022-10-17T13:00:42;4.63;;;1.70;;
46723;SDS011;32463;48.298;11.620;2022-10-17T13:03:16;4.82;;;1.67;;
46723;SDS011;32463;48.298;11.620;2022-10-17T13:05:56;5.45;;;1.70;;
46723;SDS011;32463;48.298;11.620;2022-10-17T13:08:27;4.20;;;1.50;;
46723;SDS011;32463;48.298;11.620;2022-10-17T13:11:02;3.55;;;1.63;;
46723;SDS011;32463;48.298;11.620;2022-10-17T13:13:37;2.95;;;1.63;;
46723;SDS011;32463;48.298;11.620;2022-10-17T13:16:27;4.80;;;1.85;;
46723;SDS011;32463;48.298;11.620;2022-10-17T13:18:56;4.63;;;1.48;;
46723;SDS011;32463;48.298;11.620;2022-10-17T13:21:23;4.07;;;1.60;;
46723;SDS011;32463;48.298;11.620;2022-10-17T13:23:50;4.22;;;1.50;;
46723;SDS011;32463;48.298;11.620;2022-10-17T13:26:19;3.08;;;1.60;;
46723;SDS011;32463;48.298;11.620;2022-10-17T13:29:00;2.47;;;1.40;;
46723;SDS011;32463;48.298;11.620;2022-10-17T13:31:39;4.10;;;1.45;;
46723;SDS011;32463;48.298;11.620;2022-10-17T13:34:14;4.50;;;1.60;;
46723;SDS011;32463;48.298;11.620;2022-10-17T13:36:45;4.05;;;1.75;;
46723;SDS011;32463;48.298;11.620;2022-10-17T13:39:13;4.57;;;1.63;;
46723;SDS011;32463;48.298;11.620;2022-10-17T13:41:43;3.20;;;1.67;;
46723;SDS011;32463;48.298;11.620;2022-10-17T13:44:11;4.50;;;1.80;;
46723;SDS011;32463;48.298;11.620;2022-10-17T13:46:41;6.00;;;1.70;;
46723;SDS011;32463;48.298;11.620;2022-10-17T13:49:10;3.67;;;1.85;;
46723;SDS011;32463;48.298;11.620;2022-10-17T13:51:43;3.42;;;1.60;;
46723;SDS011;32463;48.298;11.620;2022-10-17T13:54:18;2.08;;;1.60;;
46723;SDS011;32463;48.298;11.620;2022-10-17T13:56:58;4.93;;;1.67;;
46723;SDS011;32463;48.298;11.620;2022-10-17T13:59:27;6.93;;;2.00;;
46723;SDS011;32463;48.298;11.620;2022-10-17T14:02:01;4.55;;;2.42;;
46723;SDS011;32463;48.298;11.620;2022-10-17T14:04:29;4.65;;;2.30;;
46723;SDS011;32463;48.298;11.620;2022-10-17T14:06:56;2.97;;;1.67;;
46723;SDS011;32463;48.298;11.620;2022-10-17T14:09:24;6.35;;;1.90;;
46723;SDS011;32463;48.298;11.620;2022-10-17T14:14:25;4.25;;;1.95;;
46723;SDS011;32463;48.298;11.620;2022-10-17T14:16:53;3.17;;;1.80;;
46723;SDS011;32463;48.298;11.620;2022-10-17T14:19:23;3.03;;;1.70;;
46723;SDS011;32463;48.298;11.620;2022-10-17T14:21:53;3.90;;;1.73;;
46723;SDS011;32463;48.298;11.620;2022-10-17T14:26:48;3.15;;;1.85;;
46723;SDS011;32463;48.298;11.620;2022-10-17T14:29:22;3.58;;;1.75;;
46723;SDS011;32463;48.298;11.620;2022-10-17T14:34:30;2.70;;;1.80;;
46723;SDS011;32463;48.298;11.620;2022-10-17T14:36:59;3.45;;;1.80;;
46723;SDS011;32463;48.298;11.620;2022-10-17T14:39:26;3.95;;;1.85;;
46723;SDS011;32463;48.298;11.620;2022-10-17T14:41:54;5.20;;;2.00;;
46723;SDS011;32463;48.298;11.620;2022-10-17T14:44:25;4.25;;;1.95;;
46723;SDS011;32463;48.298;11.620;2022-10-17T14:46:57;3.55;;;1.80;;
46723;SDS011;32463;48.298;11.620;2022-10-17T14:49:38;4.68;;;2.13;;
46723;SDS011;32463;48.298;11.620;2022-10-17T14:52:22;3.35;;;2.05;;
46723;SDS011;32463;48.298;11.620;2022-10-17T14:54:50;6.20;;;2.08;;
46723;SDS011;32463;48.298;11.620;2022-10-17T14:59:47;5.75;;;2.42;;
46723;SDS011;32463;48.298;11.620;2022-10-17T15:02:14;4.95;;;2.10;;
46723;SDS011;32463;48.298;11.620;2022-10-17T15:04:40;3.72;;;2.13;;
46723;SDS011;32463;48.298;11.620;2022-10-17T15:07:12;28.65;;;19.45;;
46723;SDS011;32463;48.298;11.620;2022-10-17T15:09:40;14.30;;;9.57;;
46723;SDS011;32463;48.298;11.620;2022-10-17T15:12:11;9.57;;;4.82;;
46723;SDS011;32463;48.298;11.620;2022-10-17T15:14:39;3.22;;;2.20;;
46723;SDS011;32463;48.298;11.620;2022-10-17T15:17:11;14.88;;;2.38;;
46723;SDS011;32463;48.298;11.620;2022-10-17T15:19:40;5.50;;;1.80;;
46723;SDS011;32463;48.298;11.620;2022-10-17T15:22:07;5.20;;;1.70;;
46723;SDS011;32463;48.298;11.620;2022-10-17T15:24:33;4.50;;;1.98;;
46723;SDS011;32463;48.298;11.620;2022-10-17T15:26:59;5.38;;;1.95;;
46723;SDS011;32463;48.298;11.620;2022-10-17T15:29:26;4.80;;;2.30;;
46723;SDS011;32463;48.298;11.620;2022-10-17T15:31:53;3.50;;;2.00;;
46723;SDS011;32463;48.298;11.620;2022-10-17T15:34:19;3.50;;;2.10;;
46723;SDS011;32463;48.298;11.620;2022-10-17T15:36:49;4.00;;;2.00;;
46723;SDS011;32463;48.298;11.620;2022-10-17T15:39:17;5.03;;;2.20;;
46723;SDS011;32463;48.298;11.620;2022-10-17T15:41:44;3.95;;;1.98;;
46723;SDS011;32463;48.298;11.620;2022-10-17T15:44:12;2.92;;;1.98;;
46723;SDS011;32463;48.298;11.620;2022-10-17T15:46:39;5.97;;;2.38;;
46723;SDS011;32463;48.298;11.620;2022-10-17T15:49:11;5.95;;;2.38;;
46723;SDS011;32463;48.298;11.620;2022-10-17T15:51:39;6.93;;;2.08;;
46723;SDS011;32463;48.298;11.620;2022-10-17T15:54:06;3.85;;;2.40;;
46723;SDS011;32463;48.298;11.620;2022-10-17T15:59:12;4.90;;;2.70;;
46723;SDS011;32463;48.298;11.620;2022-10-17T16:01:43;4.93;;;2.72;;
46723;SDS011;32463;48.298;11.620;2022-10-17T16:04:10;6.25;;;2.35;;
46723;SDS011;32463;48.298;11.620;2022-10-17T16:06:39;5.22;;;2.38;;
46723;SDS011;32463;48.298;11.620;2022-10-17T16:09:06;5.07;;;2.33;;
46723;SDS011;32463;48.298;11.620;2022-10-17T16:11:34;5.35;;;2.60;;
46723;SDS011;32463;48.298;11.620;2022-10-17T16:14:12;3.60;;;2.33;;
46723;SDS011;32463;48.298;11.620;2022-10-17T16:16:40;3.50;;;2.35;;
46723;SDS011;32463;48.298;11.620;2022-10-17T16:19:07;6.20;;;2.67;;
46723;SDS011;32463;48.298;11.620;2022-10-17T16:21:34;4.78;;;2.60;;
46723;SDS011;32463;48.298;11.620;2022-10-17T16:24:03;4.05;;;2.53;;
46723;SDS011;32463;48.298;11.620;2022-10-17T16:26:30;6.63;;;2.72;;
46723;SDS011;32463;48.298;11.620;2022-10-17T16:28:57;6.97;;;3.88;;
46723;SDS011;32463;48.298;11.620;2022-10-17T16:31:27;7.05;;;3.53;;
46723;SDS011;32463;48.298;11.620;2022-10-17T16:33:57;6.93;;;3.35;;
46723;SDS011;32463;48.298;11.620;2022-10-17T16:36:25;8.27;;;4.28;;
46723;SDS011;32463;48.298;11.620;2022-10-17T16:38:51;6.10;;;3.60;;
46723;SDS011;32463;48.298;11.620;2022-10-17T16:43:53;5.18;;;3.40;;
46723;SDS011;32463;48.298;11.620;2022-10-17T16:46:21;6.65;;;4.10;;
46723;SDS011;32463;48.298;11.620;2022-10-17T16:48:48;7.15;;;4.40;;
46723;SDS011;32463;48.298;11.620;2022-10-17T16:51:15;8.13;;;5.60;;
46723;SDS011;32463;48.298;11.620;2022-10-17T16:53:43;11.02;;;5.10;;
46723;SDS011;32463;48.298;11.620;2022-10-17T16:56:11;7.65;;;4.82;;
46723;SDS011;32463;48.298;11.620;2022-10-17T16:58:40;8.60;;;4.53;;
46723;SDS011;32463;48.298;11.620;2022-10-17T17:01:09;8.20;;;4.43;;
46723;SDS011;32463;48.298;11.620;2022-10-17T17:03:39;7.22;;;4.95;;
46723;SDS011;32463;48.298;11.620;2022-10-17T17:06:08;9.95;;;4.90;;
46723;SDS011;32463;48.298;11.620;2022-10-17T17:08:38;7.60;;;4.55;;